createdAt,value
2023-03-23T15:59:49.949Z,99091.63
2023-03-23T16:02:22.576Z,99099.53
2023-03-23T16:04:52.136Z,99100.63
2023-03-23T16:07:23.779Z,99102.25
2023-03-23T16:09:50.738Z,99094.53
2023-03-23T16:12:17.802Z,99107.22
2023-03-23T16:14:46.127Z,99101.16
2023-03-23T16:17:20.018Z,99104.56
2023-03-23T16:19:47.592Z,99109.19
2023-03-23T16:22:15.537Z,99109.53
2023-03-23T16:24:44.263Z,99110.69
2023-03-23T16:27:12.925Z,99110.16
2023-03-23T16:30:00.377Z,99114.28
2023-03-23T16:32:30.589Z,99114.03
2023-03-23T16:34:57.453Z,99111.59
2023-03-23T16:37:24.269Z,99110.78
2023-03-23T16:39:51.135Z,99100.84
2023-03-23T16:42:18.273Z,99109.19
2023-03-23T16:44:45.192Z,99104.47
2023-03-23T16:47:12.000Z,99101.16
2023-03-23T16:49:40.167Z,99100.63
2023-03-23T16:52:07.556Z,99095.66
2023-03-23T16:54:34.947Z,99096.44
2023-03-23T16:57:01.842Z,99090.19
2023-03-23T16:59:29.082Z,99084.13
2023-03-23T17:01:56.402Z,99088.53
2023-03-23T17:04:23.340Z,99074.81
2023-03-23T17:06:56.039Z,99067.66
2023-03-23T17:09:29.890Z,99066.72
2023-03-23T17:11:58.166Z,99065.81
2023-03-23T17:17:55.456Z,99051.09
2023-03-23T17:20:23.298Z,99051.03
2023-03-23T17:27:09.405Z,99056.78
2023-03-23T17:33:13.206Z,99057.69
2023-03-23T17:36:09.286Z,99050.31
2023-03-23T17:43:10.657Z,99037.16
2023-03-23T17:45:40.609Z,99042.56
2023-03-23T17:48:15.732Z,99031.00
2023-03-23T17:51:03.031Z,99035.09
2023-03-23T17:53:31.910Z,99041.66
2023-03-23T17:55:59.260Z,99042.22
2023-03-23T17:58:27.995Z,99048.00
2023-03-23T18:01:20.430Z,99049.38
2023-03-23T18:08:28.555Z,99045.34
2023-03-23T18:10:58.021Z,99047.34
2023-03-23T18:13:29.151Z,99049.56
2023-03-23T18:18:53.298Z,99050.91
2023-03-23T18:21:28.798Z,99047.66
2023-03-23T18:24:00.181Z,99045.81
2023-03-23T18:26:49.587Z,99032.56
2023-03-23T18:29:35.336Z,99041.81
2023-03-23T18:32:02.323Z,99033.22
2023-03-23T18:34:29.379Z,99045.28
2023-03-23T18:36:56.272Z,99037.16
2023-03-23T18:39:24.161Z,99032.09
2023-03-23T18:41:51.009Z,99034.72
2023-03-23T18:44:19.488Z,99044.25
2023-03-23T18:46:46.285Z,99040.81
2023-03-23T18:49:14.232Z,99042.19
2023-03-23T18:51:41.917Z,99035.69
2023-03-23T18:54:09.415Z,99045.47
2023-03-23T18:56:36.274Z,99048.28
2023-03-23T18:59:03.243Z,99047.19
2023-03-23T19:01:31.718Z,99041.47
2023-03-23T19:03:58.755Z,99047.78
2023-03-23T19:06:27.384Z,99043.97
2023-03-23T19:08:54.699Z,99046.16
2023-03-23T19:11:23.779Z,99044.59
2023-03-23T19:14:01.525Z,99052.56
2023-03-23T19:16:34.244Z,99049.63
2023-03-23T19:19:05.002Z,99050.41
2023-03-23T19:21:32.542Z,99052.34
2023-03-23T19:24:00.711Z,99050.50
2023-03-23T19:26:31.557Z,99051.56
2023-03-23T19:31:31.665Z,99045.91
2023-03-23T19:33:59.111Z,99053.28
2023-03-23T19:36:26.767Z,99047.09
2023-03-23T19:38:54.163Z,99047.34
2023-03-23T19:41:21.818Z,99044.38
2023-03-23T19:43:48.644Z,99047.38
2023-03-23T19:46:16.457Z,99041.94
2023-03-23T19:48:46.357Z,99044.97
2023-03-23T19:51:18.187Z,99052.06
2023-03-23T19:53:45.855Z,99051.78
2023-03-23T19:56:15.588Z,99049.06
2023-03-23T19:58:43.265Z,99040.88
2023-03-23T20:01:10.675Z,99051.78
2023-03-23T20:03:37.863Z,99043.31
2023-03-23T20:06:08.756Z,99038.38
2023-03-23T20:08:40.221Z,99034.91
2023-03-23T20:11:13.289Z,99037.91
2023-03-23T20:13:40.977Z,99047.72
2023-03-23T20:16:09.090Z,99036.53
2023-03-23T20:18:37.284Z,99039.25
2023-03-23T20:21:10.299Z,99043.34
2023-03-23T20:23:39.752Z,99037.06
2023-03-23T20:26:11.686Z,99038.69
2023-03-23T20:28:40.733Z,99033.50
2023-03-23T20:31:19.522Z,99034.56
2023-03-23T20:34:00.733Z,99044.06
2023-03-23T20:36:32.432Z,99037.47
2023-03-23T20:38:59.243Z,99035.84
2023-03-23T20:41:26.096Z,99033.63
2023-03-23T20:43:53.427Z,99036.88
2023-03-23T20:46:20.498Z,99038.47
2023-03-23T20:48:47.850Z,99030.28
2023-03-23T20:51:14.718Z,99030.81
2023-03-23T20:53:43.328Z,99024.59
2023-03-23T20:56:10.518Z,99026.25
2023-03-23T20:58:37.915Z,99031.69
2023-03-23T21:01:06.710Z,99025.69
2023-03-23T21:03:39.333Z,99026.25
2023-03-23T21:06:08.737Z,99021.03
2023-03-23T21:08:38.558Z,99019.63
2023-03-23T21:11:13.821Z,99021.50
2023-03-23T21:13:40.598Z,99020.34
2023-03-23T21:16:07.355Z,99018.09
2023-03-23T21:18:34.446Z,99012.09
2023-03-23T21:21:01.612Z,99014.53
2023-03-23T21:23:29.368Z,99006.13
2023-03-23T21:26:01.478Z,99008.31
2023-03-23T21:28:30.361Z,99003.41
2023-03-23T21:31:00.740Z,98998.22
2023-03-23T21:33:28.151Z,98995.50
2023-03-23T21:35:55.625Z,98985.91
2023-03-23T21:38:22.949Z,98991.81
2023-03-23T21:40:49.820Z,98983.88
2023-03-23T21:43:16.660Z,98973.03
2023-03-23T21:45:46.038Z,98972.25
2023-03-23T21:48:13.299Z,98968.69
2023-03-23T21:50:41.811Z,98967.03
2023-03-23T21:53:09.937Z,98963.25
2023-03-23T21:55:36.911Z,98956.41
2023-03-23T21:58:03.876Z,98959.13
2023-03-23T22:00:30.674Z,98955.56
2023-03-23T22:02:58.971Z,98958.78
2023-03-23T22:05:25.908Z,98952.78
2023-03-23T22:07:52.898Z,98945.66
2023-03-23T22:10:20.221Z,98939.91
2023-03-23T22:12:47.248Z,98943.72
2023-03-23T22:15:14.611Z,98932.31
2023-03-23T22:17:41.574Z,98934.00
2023-03-23T22:20:13.654Z,98925.50
2023-03-23T22:22:40.841Z,98920.91
2023-03-23T22:25:08.225Z,98915.47
2023-03-23T22:27:35.156Z,98914.31
2023-03-23T22:30:02.137Z,98905.63
2023-03-23T22:32:29.210Z,98896.66
2023-03-23T22:34:56.142Z,98886.84
2023-03-23T22:37:24.458Z,98893.06
2023-03-23T22:39:51.734Z,98887.13
2023-03-23T22:42:18.616Z,98880.06
2023-03-23T22:44:45.594Z,98881.09
2023-03-23T22:47:12.738Z,98886.00
2023-03-23T22:49:39.814Z,98880.47
2023-03-23T22:52:06.787Z,98879.94
2023-03-23T22:54:35.246Z,98872.56
2023-03-23T22:57:02.263Z,98873.34
2023-03-23T22:59:29.227Z,98863.53
2023-03-23T23:01:56.156Z,98868.94
2023-03-23T23:04:23.134Z,98865.72
2023-03-23T23:06:50.931Z,98876.59
2023-03-23T23:09:20.605Z,98880.09
2023-03-23T23:11:48.810Z,98879.03
2023-03-23T23:14:16.011Z,98876.91
2023-03-23T23:16:42.952Z,98881.25
2023-03-23T23:19:10.083Z,98865.50
2023-03-23T23:21:37.240Z,98872.31
2023-03-23T23:24:04.488Z,98872.41
2023-03-23T23:26:31.550Z,98872.16
2023-03-23T23:29:00.331Z,98870.28
2023-03-23T23:31:29.622Z,98876.56
2023-03-23T23:33:59.641Z,98875.50
2023-03-23T23:36:28.409Z,98883.69
2023-03-23T23:38:56.454Z,98863.00
2023-03-23T23:41:23.988Z,98869.25
2023-03-23T23:43:50.923Z,98875.47
2023-03-23T23:46:19.417Z,98884.72
2023-03-23T23:48:46.607Z,98881.88
2023-03-23T23:51:13.943Z,98881.91
2023-03-23T23:53:41.065Z,98885.25
2023-03-23T23:56:10.253Z,98885.66
2023-03-23T23:58:37.191Z,98881.16
